Time;durP1;ratioP1;P1;durP2;ratioP2;P2;SDS_P1;SDS_P2;PMS_P1;PMS_P2;Temp;Humidity;BMP_temperature;BMP_pressure;BME280_temperature;BME280_humidity;BME280_pressure;Samples;Min_cycle;Max_cycle;Signal;HPM_P1;HPM_P2
2022/07/09 00:00:08;;;;;;;8.88;3.70;;;;;;;17.78;100.00;99562.84;1697349;83;21063;-61
2022/07/09 00:02:37;;;;;;;10.08;4.20;;;;;;;17.73;100.00;99569.31;1714638;83;21054;-61
2022/07/09 00:05:04;;;;;;;;;;;;;;;17.69;100.00;99574.39;1707239;83;21558;-62
2022/07/09 00:07:30;;;;;;;7.45;3.52;;;;;;;17.70;100.00;99567.77;1715433;83;20454;-62
2022/07/09 00:09:58;;;;;;;8.98;4.10;;;;;;;17.65;100.00;99567.34;1708443;83;21554;-62
2022/07/09 00:12:24;;;;;;;;;;;;;;;17.63;100.00;99573.75;1711618;83;21018;-62
2022/07/09 00:14:51;;;;;;;6.13;3.43;;;;;;;17.57;100.00;99572.27;1697231;83;20118;-62
2022/07/09 00:17:17;;;;;;;6.00;3.55;;;;;;;17.52;100.00;99571.03;1716725;83;21059;-63
2022/07/09 00:19:44;;;;;;;6.62;3.65;;;;;;;17.52;100.00;99566.91;1699772;83;21063;-63
2022/07/09 00:22:11;;;;;;;7.33;4.05;;;;;;;17.47;100.00;99560.16;1711095;83;20999;-63
2022/07/09 00:24:37;;;;;;;;;;;;;;;17.45;100.00;99567.13;1708055;83;22087;-63
2022/07/09 00:27:04;;;;;;;6.70;3.42;;;;;;;17.46;100.00;99571.51;1699409;83;20139;-63
2022/07/09 00:29:31;;;;;;;5.78;2.92;;;;;;;17.47;100.00;99568.98;1697924;83;21095;-63
2022/07/09 00:31:58;;;;;;;5.47;3.42;;;;;;;17.49;100.00;99568.92;1701904;83;21084;-62
2022/07/09 00:34:24;;;;;;;;;;;;;;;17.48;100.00;99561.80;1715222;83;21031;-62
2022/07/09 00:36:50;;;;;;;7.35;3.40;;;;;;;17.43;100.00;99553.12;1701694;83;20150;-64
2022/07/09 00:39:16;;;;;;;;;;;;;;;17.37;100.00;99568.17;1724888;83;21042;-62
2022/07/09 00:41:42;;;;;;;4.85;2.92;;;;;;;17.39;100.00;99564.52;1706610;83;20438;-62
2022/07/09 00:44:10;;;;;;;6.92;3.17;;;;;;;17.39;100.00;99570.02;1718286;83;21047;-62
2022/07/09 00:46:37;;;;;;;5.87;3.35;;;;;;;17.41;100.00;99562.27;1715137;83;21023;-62
2022/07/09 00:49:05;;;;;;;6.00;3.42;;;;;;;17.40;100.00;99559.27;1702458;83;21542;-61
2022/07/09 00:51:32;;;;;;;8.45;3.58;;;;;;;17.41;100.00;99559.52;1709272;83;21543;-63
2022/07/09 00:53:59;;;;;;;6.25;3.02;;;;;;;17.48;100.00;99563.17;1708940;83;21059;-62
2022/07/09 00:56:25;;;;;;;5.58;3.25;;;;;;;17.55;100.00;99566.81;1690292;83;21007;-62
2022/07/09 00:58:53;;;;;;;5.03;3.33;;;;;;;17.56;100.00;99571.20;1706813;83;21645;-62
2022/07/09 01:01:19;;;;;;;6.70;3.67;;;;;;;17.54;100.00;99573.45;1703298;83;21700;-62
2022/07/09 01:03:45;;;;;;;;;;;;;;;17.54;100.00;99570.12;1714739;83;21138;-62
2022/07/09 01:06:12;;;;;;;9.08;3.92;;;;;;;17.57;100.00;99562.63;1707007;83;20146;-62
2022/07/09 01:08:39;;;;;;;9.13;4.28;;;;;;;17.55;100.00;99555.81;1704227;83;21524;-61
2022/07/09 01:11:05;;;;;;;;;;;;;;;17.50;100.00;99558.73;1714634;83;21042;-61
2022/07/09 01:13:32;;;;;;;6.53;3.72;;;;;;;17.46;100.00;99556.38;1700340;83;20179;-62
2022/07/09 01:15:58;;;;;;;7.55;3.55;;;;;;;17.45;100.00;99553.38;1704888;83;20952;-62
2022/07/09 01:18:25;;;;;;;7.72;4.22;;;;;;;17.49;100.00;99558.48;1705801;83;21574;-61
2022/07/09 01:20:52;;;;;;;;;;;;;;;17.53;100.00;99560.84;1706293;83;21031;-61
2022/07/09 01:23:18;;;;;;;8.35;4.03;;;;;;;17.51;100.00;99564.45;1714403;83;20128;-62
2022/07/09 01:25:44;;;;;;;;;;;;;;;17.42;100.00;99556.20;1722588;83;21042;-63
2022/07/09 01:28:11;;;;;;;5.45;3.50;;;;;;;17.45;100.00;99556.12;1698403;83;20171;-63
2022/07/09 01:30:39;;;;;;;7.40;3.87;;;;;;;17.47;100.00;99555.22;1695106;83;21018;-63
2022/07/09 01:33:05;;;;;;;6.97;3.92;;;;;;;17.52;100.00;99555.08;1699875;83;23041;-63
2022/07/09 01:35:32;;;;;;;5.97;3.52;;;;;;;17.53;100.00;99549.83;1705815;83;21019;-61
2022/07/09 01:37:58;;;;;;;5.17;3.42;;;;;;;17.52;100.00;99552.33;1700497;83;21019;-63
2022/07/09 01:40:25;;;;;;;8.63;3.52;;;;;;;17.54;100.00;99553.62;1715198;83;21280;-62
2022/07/09 01:42:52;;;;;;;6.62;3.25;;;;;;;17.58;100.00;99552.44;1701151;83;21027;-61
2022/07/09 01:45:19;;;;;;;6.75;3.40;;;;;;;17.56;100.00;99564.31;1701702;83;21003;-62
2022/07/09 01:47:46;;;;;;;5.90;2.85;;;;;;;17.55;100.00;99562.69;1706712;83;21023;-61
2022/07/09 01:50:12;;;;;;;6.08;3.12;;;;;;;17.59;100.00;99563.70;1716756;83;21514;-63
2022/07/09 01:52:38;;;;;;;;;;;;;;;17.60;100.00;99564.77;1721403;83;21448;-64
2022/07/09 01:55:05;;;;;;;4.50;2.90;;;;;;;17.63;100.00;99565.50;1705354;83;20164;-63
2022/07/09 01:57:32;;;;;;;5.28;3.00;;;;;;;17.56;100.00;99558.81;1717309;83;21043;-64
2022/07/09 01:59:58;;;;;;;;;;;;;;;17.57;100.00;99560.47;1720125;83;21003;-62
2022/07/09 02:02:25;;;;;;;3.60;2.25;;;;;;;17.62;100.00;99557.55;1705002;83;20150;-63
2022/07/09 02:04:51;;;;;;;5.58;2.62;;;;;;;17.62;100.00;99563.05;1697678;83;21589;-63
2022/07/09 02:07:19;;;;;;;5.58;2.90;;;;;;;17.60;100.00;99555.14;1716650;83;21015;-63
2022/07/09 02:09:46;;;;;;;3.62;2.50;;;;;;;17.59;100.00;99552.13;1711346;83;21106;-63
2022/07/09 02:12:12;;;;;;;4.78;2.67;;;;;;;17.63;100.00;99554.48;1705012;83;21075;-62
2022/07/09 02:14:39;;;;;;;4.62;2.60;;;;;;;17.67;100.00;99549.96;1714897;83;21035;-62
2022/07/09 02:17:05;;;;;;;5.83;3.08;;;;;;;17.67;100.00;99547.20;1704541;83;21581;-63
2022/07/09 02:19:32;;;;;;;6.22;2.95;;;;;;;17.66;100.00;99544.77;1693681;84;21550;-62
2022/07/09 02:21:59;;;;;;;3.95;3.02;;;;;;;17.61;100.00;99538.03;1701423;83;21003;-62
2022/07/09 02:24:25;;;;;;;4.60;3.20;;;;;;;17.61;100.00;99541.59;1711161;83;21117;-63
2022/07/09 02:26:51;;;;;;;;;;;;;;;17.64;100.00;99533.28;1707845;83;21006;-62
2022/07/09 02:29:18;;;;;;;5.97;3.30;;;;;;;17.63;100.00;99539.91;1715426;83;20124;-63
2022/07/09 02:31:44;;;;;;;5.67;3.60;;;;;;;17.52;100.00;99532.50;1696457;83;21362;-64
2022/07/09 02:34:11;;;;;;;5.45;3.45;;;;;;;17.55;100.00;99533.79;1698406;83;21035;-64
2022/07/09 02:36:38;;;;;;;5.85;3.42;;;;;;;17.62;100.00;99538.28;1705666;83;21043;-63
2022/07/09 02:39:04;;;;;;;4.97;3.25;;;;;;;17.66;100.00;99542.83;1708723;83;21582;-62
2022/07/09 02:41:31;;;;;;;6.72;3.30;;;;;;;17.66;100.00;99546.14;1715308;83;21440;-63
2022/07/09 02:43:57;;;;;;;6.42;3.75;;;;;;;17.66;100.00;99563.47;1710030;83;21051;-62
2022/07/09 02:46:24;;;;;;;4.80;2.90;;;;;;;17.69;100.00;99574.39;1700775;83;20999;-63
2022/07/09 02:48:50;;;;;;;6.30;3.17;;;;;;;17.76;100.00;99594.00;1705218;83;21070;-62
2022/07/09 02:51:16;;;;;;;;;;;;;;;17.83;100.00;99607.53;1698246;83;21495;-63
2022/07/09 02:53:43;;;;;;;7.78;3.27;;;;;;;17.88;100.00;99618.41;1705215;83;20151;-63
2022/07/09 02:56:09;;;;;;;6.22;3.40;;;;;;;17.81;100.00;99629.08;1704704;83;21613;-63
2022/07/09 02:58:35;;;;;;;;;;;;;;;17.81;100.00;99644.79;1717715;83;21083;-63
2022/07/09 03:01:05;;;;;;;5.20;2.62;;;;;;;17.81;100.00;99633.22;1719776;83;20135;-63
2022/07/09 03:03:30;;;;;;;4.10;2.87;;;;;;;17.79;100.00;99632.70;1703750;83;21067;-63
2022/07/09 03:05:56;;;;;;;6.28;3.02;;;;;;;17.77;100.00;99620.41;1708071;83;21011;-63
2022/07/09 03:08:23;;;;;;;5.40;2.77;;;;;;;17.71;100.00;99614.22;1705327;83;21102;-63
2022/07/09 03:10:49;;;;;;;5.20;2.67;;;;;;;17.68;100.00;99614.06;1706414;83;20991;-61
2022/07/09 03:15:23;;;;;;;6.25;2.92;;;;;;;17.81;100.00;99613.94;1801193;78;22855;-60
2022/07/09 03:17:50;;;;;;;5.75;2.92;;;;;;;17.78;100.00;99628.33;1786306;79;21045;-61
2022/07/09 03:20:16;;;;;;;5.35;2.98;;;;;;;17.80;100.00;99633.52;1755644;81;21571;-61
2022/07/09 03:22:43;;;;;;;4.72;2.90;;;;;;;17.78;100.00;99637.18;1755994;80;21429;-61
2022/07/09 03:25:09;;;;;;;;;;;;;;;17.85;100.00;99643.80;1763054;80;21050;-61
2022/07/09 03:27:35;;;;;;;5.72;2.67;;;;;;;17.89;100.00;99652.23;1759474;81;20627;-61
2022/07/09 03:30:04;;;;;;;5.75;2.90;;;;;;;17.87;100.00;99658.64;1751878;79;21157;-61
2022/07/09 03:32:30;;;;;;;7.92;3.00;;;;;;;17.86;100.00;99668.84;1751495;80;20990;-61
2022/07/09 03:34:57;;;;;;;4.55;2.77;;;;;;;17.83;100.00;99672.80;1745840;80;21577;-61
2022/07/09 03:37:23;;;;;;;;;;;;;;;17.77;100.00;99679.04;1743625;80;20978;-61
2022/07/09 03:39:50;;;;;;;4.92;2.58;;;;;;;17.76;100.00;99676.59;1749597;80;20125;-63
2022/07/09 03:42:16;;;;;;;;;;;;;;;17.76;100.00;99676.59;1762910;81;20986;-61
2022/07/09 03:44:42;;;;;;;5.87;2.80;;;;;;;17.81;100.00;99677.27;1745040;80;20416;-61
2022/07/09 03:47:09;;;;;;;;;;;;;;;17.83;100.00;99687.95;1764138;80;21228;-62
2022/07/09 03:49:36;;;;;;;6.12;2.85;;;;;;;17.86;100.00;99681.80;1757134;80;20118;-63
2022/07/09 03:52:03;;;;;;;4.97;2.90;;;;;;;17.80;100.00;99681.14;1725252;81;20974;-64
2022/07/09 03:54:29;;;;;;;5.00;2.80;;;;;;;17.78;100.00;99680.64;1760313;80;21050;-64
2022/07/09 03:56:55;;;;;;;;;;;;;;;17.76;100.00;99676.03;1753627;80;20979;-63
2022/07/09 03:59:22;;;;;;;3.95;2.75;;;;;;;17.78;100.00;99677.88;1759413;81;20102;-60
2022/07/09 04:01:48;;;;;;;5.47;2.95;;;;;;;17.76;100.00;99674.66;1756619;80;21503;-61
2022/07/09 04:04:14;;;;;;;;;;;;;;;17.77;100.00;99675.47;1757972;80;21049;-61
2022/07/09 04:06:40;;;;;;;5.58;2.95;;;;;;;17.69;100.00;99674.31;1757672;80;20117;-61
2022/07/09 04:09:07;;;;;;;6.42;2.70;;;;;;;17.55;100.00;99674.16;1722607;81;21556;-61
2022/07/09 04:11:34;;;;;;;4.85;2.65;;;;;;;17.51;100.00;99673.16;1725115;81;21383;-63
2022/07/09 04:14:01;;;;;;;7.05;3.08;;;;;;;17.50;100.00;99675.10;1723548;82;21592;-61
2022/07/09 04:16:28;;;;;;;4.95;3.00;;;;;;;17.50;100.00;99681.98;1756550;80;20991;-61
2022/07/09 04:18:55;;;;;;;5.62;3.00;;;;;;;17.46;100.00;99684.34;1714038;82;21405;-62
2022/07/09 04:21:22;;;;;;;5.20;3.00;;;;;;;17.46;100.00;99682.40;1743779;81;21419;-62
2022/07/09 04:23:49;;;;;;;5.75;3.00;;;;;;;17.52;100.00;99678.92;1747369;80;21031;-61
2022/07/09 04:26:16;;;;;;;4.92;3.25;;;;;;;17.56;100.00;99684.89;1749735;80;21455;-61
2022/07/09 04:28:42;;;;;;;5.00;3.33;;;;;;;17.58;100.00;99678.48;1746427;80;21058;-61
2022/07/09 04:31:09;;;;;;;5.00;2.90;;;;;;;17.53;100.00;99680.00;1719121;82;21419;-62
2022/07/09 04:33:36;;;;;;;4.17;2.75;;;;;;;17.55;100.00;99676.91;1725902;82;21022;-62
2022/07/09 04:36:02;;;;;;;6.95;2.85;;;;;;;17.60;100.00;99680.37;1749739;80;21411;-62
2022/07/09 04:38:29;;;;;;;5.75;2.60;;;;;;;17.60;100.00;99676.25;1741521;80;21036;-62
2022/07/09 04:40:56;;;;;;;4.22;2.92;;;;;;;17.62;100.00;99678.09;1739509;80;21848;-62
2022/07/09 04:43:22;;;;;;;5.47;3.27;;;;;;;17.60;100.00;99677.62;1742487;80;21055;-61
2022/07/09 04:45:49;;;;;;;6.72;3.15;;;;;;;17.58;100.00;99677.67;1750019;80;20980;-62
2022/07/09 04:48:16;;;;;;;5.75;3.60;;;;;;;17.62;100.00;99674.53;1754245;80;21050;-61
2022/07/09 04:50:42;;;;;;;6.45;3.40;;;;;;;17.66;100.00;99668.08;1752745;80;20986;-61
2022/07/09 04:53:09;;;;;;;6.50;3.55;;;;;;;17.71;100.00;99666.53;1726526;81;21086;-62
2022/07/09 04:55:37;;;;;;;6.03;3.42;;;;;;;17.70;100.00;99661.36;1746943;80;20971;-62
2022/07/09 04:58:03;;;;;;;;;;;;;;;17.67;100.00;99651.00;1751865;80;20974;-61
2022/07/09 05:00:30;;;;;;;5.42;3.17;;;;;;;17.72;100.00;99643.38;1753126;80;20603;-61
2022/07/09 05:02:56;;;;;;;5.75;2.98;;;;;;;17.70;100.00;99635.21;1747586;80;20971;-62
2022/07/09 05:05:23;;;;;;;;;;;;;;;17.67;100.00;99626.22;1757531;80;21038;-62
2022/07/09 05:07:49;;;;;;;5.40;2.30;;;;;;;17.60;100.00;99614.88;1751301;80;20360;-62
2022/07/09 05:10:16;;;;;;;4.47;2.37;;;;;;;17.48;100.00;99616.02;1735212;80;21363;-62
2022/07/09 05:12:44;;;;;;;3.55;2.20;;;;;;;17.47;100.00;99608.32;1733664;80;20964;-63
2022/07/09 05:15:10;;;;;;;4.25;2.30;;;;;;;17.48;100.00;99603.63;1719652;81;21090;-62
2022/07/09 05:17:38;;;;;;;4.75;2.00;;;;;;;17.38;100.00;99595.94;1716915;81;20968;-61
2022/07/09 05:20:08;;;;;;;3.17;1.90;;;;;;;17.36;100.00;99589.11;1748156;81;21058;-62
2022/07/09 05:22:35;;;;;;;4.35;1.80;;;;;;;17.37;100.00;99579.73;1745096;81;20984;-60
2022/07/09 05:25:03;;;;;;;4.05;1.92;;;;;;;17.45;100.00;99560.25;1746629;81;21086;-62
2022/07/09 05:27:30;;;;;;;5.33;1.92;;;;;;;17.54;100.00;99550.87;1699208;82;21028;-61
2022/07/09 05:29:56;;;;;;;3.33;1.57;;;;;;;17.58;100.00;99552.44;1707315;82;21488;-62
2022/07/09 05:32:23;;;;;;;3.62;1.80;;;;;;;17.61;100.00;99545.72;1716870;81;20959;-62
2022/07/09 05:34:49;;;;;;;3.25;1.90;;;;;;;17.69;100.00;99541.36;1725772;82;21059;-62
2022/07/09 05:37:16;;;;;;;;;;;;;;;17.74;100.00;99528.83;1709505;81;20982;-65
2022/07/09 05:39:42;;;;;;;4.33;2.07;;;;;;;17.78;100.00;99516.03;1740099;81;20118;-62
2022/07/09 05:42:08;;;;;;;;;;;;;;;17.71;100.00;99519.84;1748983;81;20983;-62
2022/07/09 05:44:34;;;;;;;4.03;2.00;;;;;;;17.78;100.00;99522.33;1710686;82;20413;-65
2022/07/09 05:47:02;;;;;;;5.17;2.00;;;;;;;17.89;100.00;99498.02;1714024;80;21483;-62
2022/07/09 05:49:29;;;;;;;3.95;1.98;;;;;;;18.03;100.00;99494.52;1737875;81;21015;-63
2022/07/09 05:51:56;;;;;;;;;;;;;;;18.05;100.00;99492.27;1742085;81;20975;-63
2022/07/09 05:54:22;;;;;;;2.95;1.57;;;;;;;18.11;100.00;99485.44;1747532;80;20123;-63
2022/07/09 05:56:50;;;;;;;4.15;2.00;;;;;;;18.16;100.00;99478.39;1742162;81;20962;-63
2022/07/09 05:59:16;;;;;;;6.97;2.52;;;;;;;18.18;100.00;99471.98;1740958;81;21058;-64
2022/07/09 06:01:43;;;;;;;7.08;2.90;;;;;;;18.20;100.00;99470.28;1719090;81;21023;-65
2022/07/09 06:04:10;;;;;;;8.30;3.15;;;;;;;18.22;100.00;99491.41;1712727;81;21081;-64
2022/07/09 06:06:36;;;;;;;6.75;3.30;;;;;;;18.30;100.00;99499.67;1742075;81;21443;-63
2022/07/09 06:09:03;;;;;;;7.83;2.70;;;;;;;18.35;100.00;99497.31;1745999;82;21532;-64
2022/07/09 06:11:30;;;;;;;4.85;2.50;;;;;;;18.40;100.00;99502.07;1745235;80;21481;-66
2022/07/09 06:13:56;;;;;;;6.62;2.87;;;;;;;18.38;100.00;99493.34;1723268;81;21090;-65
2022/07/09 06:16:23;;;;;;;5.87;2.60;;;;;;;18.39;100.00;99492.17;1746854;82;21458;-64
2022/07/09 06:18:49;;;;;;;6.25;2.98;;;;;;;18.48;100.00;99491.34;1723173;81;21086;-65
2022/07/09 06:21:16;;;;;;;7.80;3.20;;;;;;;18.55;100.00;99483.41;1734882;82;21022;-64
2022/07/09 06:23:42;;;;;;;7.22;3.85;;;;;;;18.54;100.00;99481.78;1707680;82;21050;-65
2022/07/09 06:26:10;;;;;;;5.08;2.62;;;;;;;18.47;100.00;99475.37;1743803;80;21046;-65
2022/07/09 06:28:37;;;;;;;6.47;2.67;;;;;;;18.47;100.00;99475.37;1743270;81;21082;-63
2022/07/09 06:31:04;;;;;;;5.55;2.98;;;;;;;18.58;100.00;99477.23;1741891;81;21007;-65
2022/07/09 06:33:30;;;;;;;4.70;2.70;;;;;;;18.70;100.00;99483.67;1746696;81;21059;-65
2022/07/09 06:35:57;;;;;;;5.72;2.77;;;;;;;18.75;100.00;99473.83;1745945;82;21070;-64
2022/07/09 06:38:24;;;;;;;7.80;3.20;;;;;;;18.76;100.00;99476.02;1746700;81;21027;-63
2022/07/09 06:40:52;;;;;;;4.53;2.30;;;;;;;18.88;100.00;99476.13;1694140;82;21040;-64
2022/07/09 06:43:18;;;;;;;5.55;2.80;;;;;;;19.05;100.00;99480.73;1695288;81;21064;-64
2022/07/09 06:45:46;;;;;;;6.00;2.67;;;;;;;19.13;100.00;99474.36;1714759;81;21031;-65
2022/07/09 06:48:12;;;;;;;5.83;2.67;;;;;;;19.18;100.00;99478.28;1726383;80;21027;-64
2022/07/09 06:50:38;;;;;;;4.58;2.42;;;;;;;19.15;100.00;99483.09;1745412;81;21544;-64
2022/07/09 06:53:05;;;;;;;5.10;2.30;;;;;;;19.17;100.00;99482.17;1742555;81;21467;-64
2022/07/09 06:55:32;;;;;;;5.03;2.30;;;;;;;19.21;100.00;99483.94;1743539;81;21079;-64
2022/07/09 06:57:59;;;;;;;5.37;2.10;;;;;;;19.25;100.00;99482.13;1719326;81;20991;-63
2022/07/09 07:00:26;;;;;;;4.00;2.10;;;;;;;19.31;100.00;99485.49;1747149;81;21561;-64
2022/07/09 07:02:52;;;;;;;2.92;1.75;;;;;;;19.32;100.00;99488.50;1745809;81;20992;-63
2022/07/09 07:05:20;;;;;;;4.78;1.87;;;;;;;19.37;100.00;99491.88;1747633;80;21518;-62
2022/07/09 07:07:46;;;;;;;3.17;1.70;;;;;;;19.42;100.00;99488.69;1738292;80;20984;-62
2022/07/09 07:10:14;;;;;;;8.75;1.87;;;;;;;19.43;100.00;99487.56;1743198;82;21336;-62
2022/07/09 07:12:41;;;;;;;3.30;1.80;;;;;;;19.36;100.00;99486.12;1727878;80;20960;-62
2022/07/09 07:15:09;;;;;;;4.15;1.82;;;;;;;19.36;100.00;99488.88;1724522;80;21543;-63
2022/07/09 07:17:35;;;;;;;3.33;1.85;;;;;;;19.38;100.00;99489.34;1740087;81;20971;-63
2022/07/09 07:20:02;;;;;;;3.55;2.10;;;;;;;19.36;100.00;99487.50;1749817;80;21483;-64
2022/07/09 07:22:29;;;;;;;5.92;2.02;;;;;;;19.33;100.00;99479.89;1754344;80;21394;-64
2022/07/09 07:24:55;;;;;;;3.72;1.70;;;;;;;19.33;100.00;99479.89;1743739;81;21531;-63
2022/07/09 07:27:21;;;;;;;3.87;2.00;;;;;;;19.39;100.00;99470.83;1738911;80;20987;-65
2022/07/09 07:29:48;;;;;;;3.25;2.00;;;;;;;19.43;100.00;99465.47;1746391;81;21077;-64
2022/07/09 07:32:14;;;;;;;6.30;2.22;;;;;;;19.45;100.00;99453.55;1746282;80;21613;-65
2022/07/09 07:34:41;;;;;;;4.20;1.90;;;;;;;19.48;100.00;99455.62;1745939;80;21042;-63
2022/07/09 07:37:07;;;;;;;3.37;1.80;;;;;;;19.48;100.00;99456.44;1740875;81;21019;-64
2022/07/09 07:39:34;;;;;;;4.33;1.77;;;;;;;19.53;100.00;99455.41;1740024;81;21039;-63
2022/07/09 07:42:01;;;;;;;3.05;1.77;;;;;;;19.62;100.00;99454.77;1743774;80;21511;-62
2022/07/09 07:44:28;;;;;;;6.60;1.90;;;;;;;19.65;100.00;99453.52;1743737;81;21478;-63
2022/07/09 07:46:55;;;;;;;6.10;1.55;;;;;;;19.67;100.00;99460.88;1748959;80;20983;-63
2022/07/09 07:49:21;;;;;;;5.03;2.08;;;;;;;19.75;100.00;99459.20;1712981;81;21043;-62
2022/07/09 07:51:47;;;;;;;4.42;1.60;;;;;;;19.75;100.00;99454.48;1735618;80;21012;-62
2022/07/09 07:54:14;;;;;;;2.67;1.70;;;;;;;19.74;100.00;99446.53;1744580;82;21598;-62
2022/07/09 07:56:41;;;;;;;4.08;1.40;;;;;;;19.77;100.00;99440.31;1744358;82;21491;-62
2022/07/09 07:59:08;;;;;;;4.40;1.90;;;;;;;19.83;100.00;99436.22;1742069;81;21621;-62
2022/07/09 08:01:34;;;;;;;3.47;1.90;;;;;;;19.94;100.00;99440.17;1743838;81;21035;-60
2022/07/09 08:04:01;;;;;;;4.20;2.00;;;;;;;19.94;100.00;99429.70;1735135;80;21011;-61
2022/07/09 08:06:28;;;;;;;2.52;1.75;;;;;;;19.87;100.00;99428.27;1745126;81;21003;-61
2022/07/09 08:08:55;;;;;;;3.12;1.82;;;;;;;19.82;100.00;99425.73;1742180;81;20995;-62
2022/07/09 08:11:21;;;;;;;3.12;1.80;;;;;;;19.83;100.00;99425.17;1746484;82;21087;-61
2022/07/09 08:13:48;;;;;;;4.22;1.72;;;;;;;19.74;100.00;99427.20;1736237;81;21038;-62
2022/07/09 08:16:15;;;;;;;3.15;1.47;;;;;;;19.71;100.00;99436.97;1735105;81;21069;-62
2022/07/09 08:18:42;;;;;;;4.17;1.87;;;;;;;19.74;100.00;99444.58;1733460;81;20991;-62
2022/07/09 08:21:08;;;;;;;5.62;1.72;;;;;;;19.70;100.00;99442.82;1754322;80;21026;-61
2022/07/09 08:23:51;;;;;;;4.00;1.90;;;;;;;19.59;100.00;99445.80;1740279;80;21023;-61
2022/07/09 08:26:03;;;;;;;5.10;1.60;;;;;;;19.57;100.00;99430.94;1741536;82;21032;-61
2022/07/09 08:28:30;;;;;;;2.42;1.60;;;;;;;19.59;100.00;99431.39;1743255;80;21078;-63
2022/07/09 08:30:56;;;;;;;2.70;1.67;;;;;;;19.61;100.00;99432.44;1702030;83;21043;-63
2022/07/09 08:33:23;;;;;;;2.52;1.70;;;;;;;19.60;100.00;99424.73;1669454;84;21935;-63
2022/07/09 08:35:49;;;;;;;3.92;1.80;;;;;;;19.55;100.00;99420.81;1707775;82;20999;-62
2022/07/09 08:38:16;;;;;;;3.20;1.67;;;;;;;19.48;100.00;99426.64;1751947;80;21047;-63
2022/07/09 08:40:42;;;;;;;2.60;1.72;;;;;;;19.49;100.00;99426.28;1729872;80;21108;-62
2022/07/09 08:43:09;;;;;;;3.45;1.90;;;;;;;19.50;100.00;99424.34;1725791;81;21043;-63
2022/07/09 08:45:36;;;;;;;4.28;1.70;;;;;;;19.51;100.00;99416.30;1705992;83;21050;-62
2022/07/09 08:48:03;;;;;;;4.60;1.65;;;;;;;19.54;100.00;99417.00;1724362;81;21522;-63
2022/07/09 08:50:29;;;;;;;3.25;1.65;;;;;;;19.58;100.00;99419.31;1708549;84;21356;-63
2022/07/09 08:52:56;;;;;;;2.62;2.00;;;;;;;19.59;100.00;99406.53;1728985;82;21451;-63
2022/07/09 08:55:23;;;;;;;4.72;1.57;;;;;;;19.57;100.00;99414.94;1729653;82;21066;-65
2022/07/09 08:57:50;;;;;;;3.75;1.85;;;;;;;19.57;100.00;99416.31;1711206;83;20964;-62
2022/07/09 09:00:17;;;;;;;4.85;1.50;;;;;;;19.58;100.00;99408.27;1745934;80;21034;-64
2022/07/09 09:02:43;;;;;;;7.75;1.95;;;;;;;19.60;100.00;99405.97;1737209;82;21479;-64
2022/07/09 09:05:13;;;;;;;4.40;2.00;;;;;;;19.64;100.00;99406.91;1744092;81;21011;-64
2022/07/09 09:07:40;;;;;;;4.12;1.80;;;;;;;19.62;100.00;99413.36;1745289;81;21014;-63
2022/07/09 09:10:07;;;;;;;3.37;1.98;;;;;;;19.65;100.00;99422.34;1738234;82;21073;-65
2022/07/09 09:12:35;;;;;;;2.95;1.57;;;;;;;19.71;100.00;99412.69;1727099;81;21538;-63
2022/07/09 09:15:06;;;;;;;4.87;1.90;;;;;;;19.69;100.00;99421.90;1710673;83;21142;-63
2022/07/09 09:17:33;;;;;;;4.47;2.05;;;;;;;19.66;100.00;99423.36;1743943;81;20936;-63
2022/07/09 09:20:13;;;;;;;6.00;2.30;;;;;;;19.71;100.00;99426.50;1742439;81;21470;-65
2022/07/09 09:22:50;;;;;;;6.70;2.42;;;;;;;19.78;100.00;99417.09;1746846;82;21483;-64
2022/07/09 09:25:19;;;;;;;3.12;2.08;;;;;;;19.78;100.00;99409.61;1745625;81;21035;-62
2022/07/09 09:27:56;;;;;;;4.33;1.90;;;;;;;19.81;100.00;99419.16;1721983;82;21035;-62
2022/07/09 09:30:23;;;;;;;3.40;1.90;;;;;;;19.87;100.00;99421.36;1720115;81;21604;-62
2022/07/09 09:33:03;;;;;;;5.42;2.35;;;;;;;19.92;100.00;99421.73;1742742;81;21031;-63
2022/07/09 09:35:35;;;;;;;3.70;2.10;;;;;;;19.88;100.00;99420.23;1742969;81;20999;-63
2022/07/09 09:38:03;;;;;;;3.83;2.77;;;;;;;19.82;100.00;99422.17;1741465;81;21060;-64
2022/07/09 09:40:31;;;;;;;3.92;2.00;;;;;;;19.83;100.00;99421.84;1722714;81;21104;-66
2022/07/09 09:43:00;;;;;;;3.47;1.90;;;;;;;19.89;100.00;99425.19;1722017;81;20987;-66
2022/07/09 09:45:27;;;;;;;3.05;2.02;;;;;;;19.98;100.00;99419.58;1741575;81;21095;-63
2022/07/09 09:47:54;;;;;;;2.92;1.67;;;;;;;19.97;100.00;99419.34;1732553;82;20985;-64
2022/07/09 09:50:24;;;;;;;2.95;1.60;;;;;;;19.95;100.00;99409.19;1731878;81;21084;-65
2022/07/09 09:52:54;;;;;;;4.33;2.10;;;;;;;19.95;100.00;99400.33;1738497;81;21003;-67
2022/07/09 09:55:21;;;;;;;2.05;1.80;;;;;;;20.04;100.00;99407.97;1740940;81;20995;-65
2022/07/09 09:57:48;;;;;;;4.65;2.08;;;;;;;20.13;100.00;99411.42;1723842;81;21004;-64
2022/07/09 10:00:15;;;;;;;3.08;1.80;;;;;;;20.17;100.00;99408.78;1737778;81;21024;-65
2022/07/09 10:02:46;;;;;;;3.27;1.70;;;;;;;20.24;100.00;99409.02;1715562;82;21416;-66
2022/07/09 10:05:13;;;;;;;3.40;1.98;;;;;;;20.27;100.00;99399.50;1672802;83;21005;-65
2022/07/09 10:07:41;;;;;;;3.35;2.05;;;;;;;20.37;100.00;99391.92;1739303;82;21055;-67
2022/07/09 10:10:17;;;;;;;5.17;2.00;;;;;;;20.42;100.00;99389.73;1712012;81;21031;-67
2022/07/09 10:12:44;;;;;;;3.02;2.00;;;;;;;20.47;100.00;99387.31;1735068;82;20995;-64
2022/07/09 10:15:25;;;;;;;5.85;2.17;;;;;;;20.59;100.00;99390.06;1730728;81;21040;-66
2022/07/09 10:17:52;;;;;;;4.25;2.08;;;;;;;20.71;100.00;99380.39;1722197;81;20975;-67
2022/07/09 10:20:33;;;;;;;4.42;2.00;;;;;;;20.79;100.00;99381.66;1725223;81;20987;-67
2022/07/09 10:23:00;;;;;;;3.05;1.82;;;;;;;20.77;100.00;99385.91;1716500;82;21094;-66
2022/07/09 10:25:30;;;;;;;2.72;1.70;;;;;;;20.77;100.00;99382.56;1717544;83;21078;-67
2022/07/09 10:27:57;;;;;;;3.70;2.40;;;;;;;20.80;100.00;99388.78;1717681;81;20999;-65
2022/07/09 10:30:28;;;;;;;5.83;2.30;;;;;;;20.77;100.00;99384.52;1717494;83;21669;-66
2022/07/09 10:33:06;;;;;;;4.22;1.65;;;;;;;20.72;100.00;99391.12;1718582;82;21523;-65
2022/07/09 10:35:43;;;;;;;5.10;2.15;;;;;;;20.71;100.00;99382.58;1717240;83;21082;-65
2022/07/09 10:38:10;;;;;;;4.70;1.67;;;;;;;20.78;100.00;99386.14;1719499;81;21047;-67
2022/07/09 10:40:39;;;;;;;3.40;1.80;;;;;;;20.81;100.00;99385.45;1696604;81;21038;-63
2022/07/09 10:43:06;;;;;;;3.05;1.77;;;;;;;20.79;100.00;99393.30;1720180;82;21089;-66
2022/07/09 10:45:41;;;;;;;4.22;1.80;;;;;;;20.85;100.00;99382.22;1687175;85;21507;-65
2022/07/09 10:48:11;;;;;;;2.45;1.70;;;;;;;20.98;100.00;99381.03;1719648;81;21008;-69
2022/07/09 10:50:40;;;;;;;2.62;1.50;;;;;;;21.00;100.00;99382.08;1730045;81;21063;-70
2022/07/09 10:53:07;;;;;;;4.00;2.05;;;;;;;21.00;100.00;99371.02;1722282;81;21626;-70
2022/07/09 10:55:33;;;;;;;2.80;1.85;;;;;;;21.03;100.00;99378.03;1725008;81;21513;-66
2022/07/09 10:58:01;;;;;;;4.35;2.50;;;;;;;21.09;100.00;99378.58;1733141;81;21532;-65
2022/07/09 11:00:30;;;;;;;2.90;1.85;;;;;;;21.08;100.00;99373.63;1722308;81;21086;-64
2022/07/09 11:03:05;;;;;;;3.02;1.72;;;;;;;21.01;100.00;99374.80;1725888;82;21376;-65
2022/07/09 11:05:34;;;;;;;2.15;1.40;;;;;;;21.02;100.00;99369.50;1729491;82;21014;-66
2022/07/09 11:08:05;;;;;;;3.37;1.50;;;;;;;21.12;100.00;99371.80;1726077;81;21124;-65
2022/07/09 11:10:36;;;;;;;3.02;1.50;;;;;;;21.04;100.00;99371.35;1724346;81;21030;-65
2022/07/09 11:13:03;;;;;;;3.52;2.10;;;;;;;20.91;100.00;99374.47;1719056;82;21003;-63
2022/07/09 11:15:34;;;;;;;5.05;1.82;;;;;;;20.82;100.00;99373.23;1719233;83;20999;-64
2022/07/09 11:18:06;;;;;;;2.98;1.65;;;;;;;20.73;100.00;99377.50;1726970;81;21521;-63
2022/07/09 11:20:45;;;;;;;3.47;1.45;;;;;;;20.68;100.00;99380.52;1736800;82;20988;-64
2022/07/09 11:23:13;;;;;;;3.10;1.60;;;;;;;20.65;100.00;99385.94;1715670;82;21043;-64
2022/07/09 11:25:40;;;;;;;3.45;1.55;;;;;;;20.63;100.00;99389.61;1727255;81;21010;-64
2022/07/09 11:28:07;;;;;;;3.10;1.65;;;;;;;20.56;100.00;99396.29;1716117;82;21027;-64
2022/07/09 11:30:34;;;;;;;3.05;1.47;;;;;;;20.57;100.00;99397.91;1728858;82;20971;-63
2022/07/09 11:33:00;;;;;;;3.85;1.67;;;;;;;20.56;100.00;99401.82;1723544;82;20998;-65